Search for airport 
image banner adimage banner adimage banner ad
image banner ad

CN23 - Harvard

Located in Yermo, United States

ICAO - CN23, IATA -

Data provided by Airmate  

General information

Coordinates: N34°57'42" W116°40'31"
Elevation is 1825 feet MSL.
Magnetic variation is 14° East
View others Airports in California

Operational data

Special qualification required
Current time UTC:
Current local time:
Weather at : KDAG - Barstow-Daggett ( 16 km )
METAR: KDAG 292050Z AUTO VRB03KT 10SM CLR 39/09 A2989 RMK AO2 SLP089 T03890094 58020
TAF: KDAG 291727Z 2918/3018 29008KT P6SM FEW200 FM292000 VRB06KT P6SM SCT120 FM300200 25014KT P6SM SCT120 BKN250 TEMPO 3002/3005 VRB15G25KT TSRA BKN080CB FM300900 29008KT P6SM SCT120 BKN200
View NOTAMs / SUP AIP / TFR affecting this airport [VIEW]
Communications frequencies: [VIEW]

Runways:

RWY identifierQFULength (ft)Width (ft)SurfaceLDA (ft)
072640100EARTH
252640100EARTH

Airport contact information

Address: Yermo United States

Satellite view of CN23